Washington, District of Columbia
Traffic Map
Current Weather Conditions
Washington, District of Columbia
Broken Clouds
Broken Clouds
-2°
Feels Like: -2°
Wind Chill: -2° Ceiling: 24000
Heat Index: -2° Visibility: 10mi
Dew Point: -17° Wind: 3mph
Humidity: 30% Direction: 110° (ESE)
Pressure: 30.8in Gusts: 0mph
Raw Report DataKDCA 281852Z 11003KT 10SM BKN240 M02/M17 A3080 RMK AO2 SLP429 T10171172
Traffic Incident Summary
Active as of:
Severity:
Category:
InformationThere was an issue retrieving the traffic information for this location. Please try a different location or try again shortly.
Advertisements
Track Severe Weather on mobile